Kezdőlap
METAR-TAF:

METAR-TAF

Repülőterek :

Katowice, Lengyelország

földrajzi szélesség: 50-28-27N, földrajzi hosszúság: 019-04-48E, magasság: 284 m

Jelenlegi meteorológiai megfigyelések

A jelentés 27 perccel ezelõtt készült, 06:30 UTC
Kelet-délkeleti szél 7 kt
Hőmérséklet 19°C
Páratartalom 68%
Légköri nyomás 1013 hPa
Látótávolság 10 km, vagy több
felhőtlen 1500 m magasságban, és nincs gomolyfelhõ

METAR: EPKT 210630Z 11007KT CAVOK 19/13 Q1013

Idő: 08:57 (06:57 UTC)

Előrejelzés

A jelentés 1 órával és 27 perccel ezelõtt készült, 05:30 UTC
Az előrejelzés 21-én 06 óra UTC és 22-én 06 óra UTC között érvényes
Keleti szél 10 kt
Látótávolság 10 km, vagy több
felhőtlen 1500 m magasságban, és nincs gomolyfelhõ
Valószínűség 40% :
21-én 11 óra UTC és 21-én 16 óra UTC között ideiglenes
Szórványos felhőzet 4000 lábon, Cumulonimbus.

TAF: EPKT 210530Z 2106/2206 09010KT CAVOK PROB40 TEMPO 2111/2116 SCT040CB

Meteorológiai megfigyelések és előrejelzések több, mint 4000 repülőtéren (METAR és TAF jelentéseket).

A térképen piros és sárga pontok jelzik az elérhető meteorológiai állomásokat.

Mozgassa az egeret a pont fölött, hogy megjelenjen az állomás neve.

Azután kattintson az időjárási megfigyelések és előrejelzések megtekintéséhez.

A térkép megváltoztatása: kattintson a fekete keresztel jelölt zöld gombra ráközelítéshez, a vonallal jelölt zöld gombra távolításhoz, vagy a zöld nyilakra a szomszédos térképek eléréséhez.


METAR-TAF: